Time;durP1;ratioP1;P1;durP2;ratioP2;P2;SDS_P1;SDS_P2;PMS_P1;PMS_P2;Temp;Humidity;BMP_temperature;BMP_pressure;BME280_temperature;BME280_humidity;BME280_pressure;Samples;Min_cycle;Max_cycle;Signal;HPM_P1;HPM_P2
2022/03/22 00:01:41;;;;;;;0.70;0.70;;;;;;;;;;6160752;23;20186;-88
2022/03/22 00:04:10;;;;;;;0.70;0.70;;;;;;;;;;6160086;23;20205;-88
2022/03/22 00:06:43;;;;;;;0.70;0.70;;;;;;;;;;6160619;23;20178;-87
2022/03/22 00:09:11;;;;;;;3.80;3.53;;;;;;;;;;6160197;23;20202;-88
2022/03/22 00:11:40;;;;;;;8.50;5.57;;;;;;;;;;6160547;23;20259;-88
2022/03/22 00:14:09;;;;;;;1.10;1.10;;;;;;;;;;6160325;23;20269;-88
2022/03/22 00:16:38;;;;;;;1.90;1.80;;;;;;;;;;6160284;23;20182;-87
2022/03/22 00:19:26;;;;;;;2.83;2.60;;;;;;;;;;6159817;23;20178;-88
2022/03/22 00:21:57;;;;;;;2.57;2.37;;;;;;;;;;6186428;23;20170;-88
2022/03/22 00:24:25;;;;;;;1.23;1.23;;;;;;;;;;6159740;23;20212;-89
2022/03/22 00:26:54;;;;;;;1.97;1.87;;;;;;;;;;6186298;23;20170;-88
2022/03/22 00:29:23;;;;;;;2.03;1.93;;;;;;;;;;6160338;23;20198;-88
2022/03/22 00:31:51;;;;;;;1.73;1.63;;;;;;;;;;6159879;23;20209;-88
2022/03/22 00:34:20;;;;;;;2.03;1.93;;;;;;;;;;6186482;23;20170;-88
2022/03/22 00:36:49;;;;;;;9.70;5.87;;;;;;;;;;6160425;23;20266;-87
2022/03/22 00:39:22;;;;;;;0.80;0.80;;;;;;;;;;6160372;23;20175;-88
2022/03/22 00:41:50;;;;;;;0.80;0.80;;;;;;;;;;6160148;23;20238;-88
2022/03/22 00:44:19;;;;;;;1.90;1.53;;;;;;;;;;6160390;23;20185;-88
2022/03/22 00:46:48;;;;;;;0.93;0.93;;;;;;;;;;6186127;23;20170;-88
2022/03/22 00:49:17;;;;;;;2.07;1.53;;;;;;;;;;6160136;23;20226;-88
2022/03/22 00:51:47;;;;;;;4.77;2.93;;;;;;;;;;6160498;23;20265;-88
2022/03/22 00:54:15;;;;;;;2.57;2.47;;;;;;;;;;6159770;23;20206;-88
2022/03/22 00:56:45;;;;;;;2.50;2.30;;;;;;;;;;6160003;23;20244;-88
2022/03/22 01:02:00;;;;;;;7.47;5.87;;;;;;;;;;6160035;23;20171;-87
2022/03/22 01:04:29;;;;;;;3.73;2.80;;;;;;;;;;6159640;23;20304;-87
2022/03/22 01:06:57;;;;;;;3.87;3.13;;;;;;;;;;6160159;23;20177;-87
2022/03/22 01:09:27;;;;;;;7.27;3.03;;;;;;;;;;6160118;23;20204;-88
2022/03/22 01:11:57;;;;;;;0.90;0.90;;;;;;;;;;6160328;23;20185;-89
2022/03/22 01:14:27;;;;;;;3.47;3.20;;;;;;;;;;6159545;23;20182;-88
2022/03/22 01:16:56;;;;;;;2.77;2.57;;;;;;;;;;6159626;23;20204;-87
2022/03/22 01:19:30;;;;;;;3.80;3.57;;;;;;;;;;6159211;23;20324;-87
2022/03/22 01:21:59;;;;;;;6.53;5.57;;;;;;;;;;6159471;23;20235;-88
2022/03/22 01:24:28;;;;;;;4.73;4.33;;;;;;;;;;6159911;23;20188;-88
2022/03/22 01:26:58;;;;;;;2.47;2.37;;;;;;;;;;6185927;23;20247;-87
2022/03/22 01:29:28;;;;;;;3.10;2.90;;;;;;;;;;6160062;23;20306;-88
2022/03/22 01:31:56;;;;;;;0.80;0.80;;;;;;;;;;6159701;23;20214;-87
2022/03/22 01:34:25;;;;;;;1.63;1.63;;;;;;;;;;6185595;23;20237;-88
2022/03/22 01:36:53;;;;;;;4.63;4.33;;;;;;;;;;6159603;23;20184;-87
2022/03/22 01:39:22;;;;;;;4.27;3.77;;;;;;;;;;6159470;23;20265;-88
2022/03/22 01:41:50;;;;;;;1.10;1.10;;;;;;;;;;6185883;23;20189;-87
2022/03/22 01:44:20;;;;;;;4.50;4.20;;;;;;;;;;6159916;23;20185;-87
2022/03/22 01:46:51;;;;;;;1.53;1.53;;;;;;;;;;6159634;23;20181;-88
2022/03/22 01:49:21;;;;;;;5.67;5.13;;;;;;;;;;6159465;23;20278;-88
2022/03/22 01:51:51;;;;;;;0.70;0.70;;;;;;;;;;6159456;23;20185;-88
2022/03/22 01:54:20;;;;;;;1.50;1.50;;;;;;;;;;6159525;23;20204;-87
2022/03/22 01:56:49;;;;;;;1.60;1.60;;;;;;;;;;6159577;23;20176;-88
2022/03/22 01:59:17;;;;;;;1.20;1.20;;;;;;;;;;6159944;23;20205;-87
2022/03/22 02:07:23;;;;;;;1.53;1.43;;;;;;;;;;6159346;23;20269;-88
2022/03/22 02:09:51;;;;;;;2.60;2.50;;;;;;;;;;6159416;23;20300;-88
2022/03/22 02:12:20;;;;;;;1.00;1.00;;;;;;;;;;6159416;23;20177;-88
2022/03/22 02:14:49;;;;;;;1.33;1.33;;;;;;;;;;6159445;23;20187;-88
2022/03/22 02:17:20;;;;;;;2.47;2.40;;;;;;;;;;6159615;23;20178;-87
2022/03/22 02:19:49;;;;;;;1.43;1.43;;;;;;;;;;6159272;23;20213;-88
2022/03/22 02:22:18;;;;;;;1.93;1.83;;;;;;;;;;6159551;23;20211;-87
2022/03/22 02:24:48;;;;;;;1.10;1.10;;;;;;;;;;6159996;23;20258;-88
2022/03/22 02:27:17;;;;;;;2.97;2.77;;;;;;;;;;6159221;23;20187;-87
2022/03/22 02:29:45;;;;;;;5.90;5.40;;;;;;;;;;6159285;23;20281;-88
2022/03/22 02:32:14;;;;;;;5.03;4.73;;;;;;;;;;6158544;23;20213;-88
2022/03/22 02:34:42;;;;;;;4.83;4.43;;;;;;;;;;6159325;23;20173;-88
2022/03/22 02:37:11;;;;;;;0.70;0.70;;;;;;;;;;6159593;23;20273;-88
2022/03/22 02:39:40;;;;;;;0.90;0.90;;;;;;;;;;6159508;23;20184;-89
2022/03/22 02:42:10;;;;;;;0.70;0.70;;;;;;;;;;6159570;23;20249;-88
2022/03/22 02:44:39;;;;;;;3.80;3.53;;;;;;;;;;6159397;23;20184;-87
2022/03/22 02:47:07;;;;;;;1.07;1.07;;;;;;;;;;6160891;23;20186;-88
2022/03/22 02:49:36;;;;;;;4.63;3.33;;;;;;;;;;6187010;23;20247;-88
2022/03/22 02:52:05;;;;;;;1.80;1.80;;;;;;;;;;6161178;23;20208;-87
2022/03/22 02:54:33;;;;;;;0.90;0.90;;;;;;;;;;6160817;23;20181;-88
2022/03/22 02:57:02;;;;;;;0.80;0.80;;;;;;;;;;6160873;23;20263;-87
2022/03/22 02:59:32;;;;;;;2.67;1.00;;;;;;;;;;6161330;23;20207;-88
2022/03/22 03:02:01;;;;;;;1.73;1.63;;;;;;;;;;6161194;23;20220;-88
2022/03/22 03:04:29;;;;;;;4.77;3.33;;;;;;;;;;6160986;23;20212;-88
2022/03/22 03:06:58;;;;;;;1.50;1.50;;;;;;;;;;6161029;23;20177;-88
2022/03/22 03:09:26;;;;;;;1.83;1.73;;;;;;;;;;6160677;23;20192;-88
2022/03/22 03:11:55;;;;;;;6.03;4.07;;;;;;;;;;6161361;23;20180;-88
2022/03/22 03:14:43;;;;;;;2.47;2.37;;;;;;;;;;6161137;23;20203;-87
2022/03/22 03:17:14;;;;;;;2.33;2.13;;;;;;;;;;6161087;23;20181;-88
2022/03/22 03:19:43;;;;;;;1.40;1.30;;;;;;;;;;6160714;23;20269;-87
2022/03/22 03:22:12;;;;;;;1.83;1.83;;;;;;;;;;6160895;23;20185;-88
2022/03/22 03:24:40;;;;;;;0.90;0.90;;;;;;;;;;6160754;23;20180;-87
2022/03/22 03:27:09;;;;;;;5.83;5.60;;;;;;;;;;6161024;23;20186;-88
2022/03/22 03:29:38;;;;;;;1.20;1.20;;;;;;;;;;6160159;23;20257;-88
2022/03/22 03:32:06;;;;;;;1.00;1.00;;;;;;;;;;6155778;23;20213;-88
2022/03/22 03:34:36;;;;;;;2.40;2.20;;;;;;;;;;6156278;23;20183;-88
2022/03/22 03:37:06;;;;;;;3.57;2.37;;;;;;;;;;6180467;23;20224;-87
2022/03/22 03:39:34;;;;;;;3.57;3.23;;;;;;;;;;6180676;23;20415;-88
2022/03/22 03:42:02;;;;;;;2.97;2.00;;;;;;;;;;6155382;23;20182;-88
2022/03/22 03:47:18;;;;;;;2.20;2.17;;;;;;;;;;6180609;23;20182;-88
2022/03/22 03:49:49;;;;;;;2.97;2.70;;;;;;;;;;6157063;23;20197;-87
2022/03/22 03:52:18;;;;;;;0.83;0.83;;;;;;;;;;6157044;23;20179;-88
2022/03/22 03:54:47;;;;;;;1.03;1.03;;;;;;;;;;6180432;23;20181;-88
2022/03/22 03:57:16;;;;;;;1.10;1.10;;;;;;;;;;6180273;23;20189;-88
2022/03/22 03:59:45;;;;;;;1.10;1.10;;;;;;;;;;6155565;23;20177;-87
2022/03/22 04:02:13;;;;;;;1.80;1.80;;;;;;;;;;6155185;23;20183;-88
2022/03/22 04:04:42;;;;;;;1.10;1.10;;;;;;;;;;6179873;23;20255;-88
2022/03/22 04:07:13;;;;;;;2.83;2.60;;;;;;;;;;6155362;23;20206;-88
2022/03/22 04:09:42;;;;;;;7.70;6.47;;;;;;;;;;6180390;23;20182;-88
2022/03/22 04:12:12;;;;;;;0.80;0.80;;;;;;;;;;6154594;23;20203;-88
2022/03/22 04:14:40;;;;;;;1.03;1.03;;;;;;;;;;6155344;23;20179;-88
2022/03/22 04:17:09;;;;;;;1.57;1.57;;;;;;;;;;6155213;23;20183;-87
2022/03/22 04:19:38;;;;;;;9.63;6.13;;;;;;;;;;6155544;23;20260;-88
2022/03/22 04:22:08;;;;;;;2.30;2.20;;;;;;;;;;6155327;23;20194;-87
2022/03/22 04:24:38;;;;;;;27.83;25.63;;;;;;;;;;6155474;23;20187;-88
2022/03/22 04:32:50;;;;;;;1.50;1.50;;;;;;;;;;6150231;23;20268;-88
2022/03/22 04:35:20;;;;;;;8.90;4.27;;;;;;;;;;6160304;23;20177;-88
2022/03/22 04:37:50;;;;;;;4.47;1.77;;;;;;;;;;6186399;23;20173;-88
2022/03/22 04:40:20;;;;;;;2.57;2.50;;;;;;;;;;6160236;23;20243;-88
2022/03/22 04:42:49;;;;;;;2.33;2.27;;;;;;;;;;6160355;23;20178;-87
2022/03/22 04:45:18;;;;;;;4.93;1.97;;;;;;;;;;6160036;23;20241;-88
2022/03/22 04:47:47;;;;;;;6.00;5.40;;;;;;;;;;6159672;23;20183;-87
2022/03/22 04:50:17;;;;;;;5.77;5.37;;;;;;;;;;6159963;23;20182;-88
2022/03/22 04:58:34;;;;;;;13.57;4.20;;;;;;;;;;6070616;23;20182;-88
2022/03/22 05:01:03;;;;;;;3.87;3.53;;;;;;;;;;6071040;23;20177;-87
2022/03/22 05:03:32;;;;;;;9.57;7.20;;;;;;;;;;6112397;23;20199;-88
2022/03/22 05:08:47;;;;;;;0.97;0.97;;;;;;;;;;6185154;23;20177;-88
2022/03/22 05:11:17;;;;;;;2.20;2.10;;;;;;;;;;6160233;23;20201;-87
2022/03/22 05:13:45;;;;;;;4.80;4.37;;;;;;;;;;6159659;23;20176;-87
2022/03/22 05:16:14;;;;;;;1.57;1.57;;;;;;;;;;6159831;23;20270;-87
2022/03/22 05:18:43;;;;;;;2.83;2.20;;;;;;;;;;6159998;23;20187;-88
2022/03/22 05:21:12;;;;;;;0.67;0.67;;;;;;;;;;6159975;23;20173;-87
2022/03/22 05:23:41;;;;;;;1.90;1.77;;;;;;;;;;6159988;23;20171;-87
2022/03/22 05:26:09;;;;;;;2.07;2.07;;;;;;;;;;6160240;23;20288;-86
2022/03/22 05:28:39;;;;;;;1.37;1.37;;;;;;;;;;6159722;23;20173;-87
2022/03/22 05:31:10;;;;;;;1.20;1.20;;;;;;;;;;6160047;23;20263;-87
2022/03/22 05:33:38;;;;;;;1.93;1.83;;;;;;;;;;6159430;23;20226;-87
2022/03/22 05:36:08;;;;;;;2.43;2.40;;;;;;;;;;6160134;23;20245;-87
2022/03/22 05:38:36;;;;;;;8.67;7.83;;;;;;;;;;6159651;23;20196;-87
2022/03/22 05:41:06;;;;;;;3.17;3.00;;;;;;;;;;6160131;23;20177;-87
2022/03/22 05:43:35;;;;;;;7.17;5.63;;;;;;;;;;6159725;23;20180;-87
2022/03/22 05:46:05;;;;;;;3.97;3.77;;;;;;;;;;6159770;23;20329;-87
2022/03/22 05:48:33;;;;;;;2.60;2.50;;;;;;;;;;6160409;23;20181;-87
2022/03/22 05:51:02;;;;;;;2.63;2.43;;;;;;;;;;6160323;23;20194;-87
2022/03/22 05:53:31;;;;;;;1.47;1.47;;;;;;;;;;6159889;23;20181;-87
2022/03/22 05:55:59;;;;;;;24.40;8.50;;;;;;;;;;6159797;23;20182;-87
2022/03/22 05:58:28;;;;;;;1.90;1.90;;;;;;;;;;6159525;23;20260;-88
2022/03/22 06:00:56;;;;;;;5.00;4.13;;;;;;;;;;6185904;23;20187;-87
2022/03/22 06:03:27;;;;;;;7.83;5.53;;;;;;;;;;6159895;23;20252;-87
2022/03/22 06:05:55;;;;;;;4.77;4.53;;;;;;;;;;6160109;23;20283;-87
2022/03/22 06:08:24;;;;;;;3.17;3.00;;;;;;;;;;6160230;23;20181;-89
2022/03/22 06:10:52;;;;;;;0.70;0.70;;;;;;;;;;6159867;23;20189;-86
2022/03/22 06:13:21;;;;;;;5.70;5.47;;;;;;;;;;6159357;23;20180;-87
2022/03/22 06:15:52;;;;;;;2.93;2.83;;;;;;;;;;6186494;23;20166;-87
2022/03/22 06:18:21;;;;;;;5.03;4.60;;;;;;;;;;6159705;23;20200;-87
2022/03/22 06:20:51;;;;;;;8.13;6.13;;;;;;;;;;6187293;23;20195;-88
2022/03/22 06:23:20;;;;;;;2.57;2.47;;;;;;;;;;6161862;23;20188;-87
2022/03/22 06:25:48;;;;;;;2.50;2.27;;;;;;;;;;6162364;23;20259;-87
2022/03/22 06:28:18;;;;;;;1.30;1.30;;;;;;;;;;6161573;23;20203;-88
2022/03/22 06:30:47;;;;;;;3.97;3.87;;;;;;;;;;6161345;23;20235;-88
2022/03/22 06:33:17;;;;;;;6.80;6.30;;;;;;;;;;6161126;23;20210;-87
2022/03/22 06:35:46;;;;;;;4.13;4.03;;;;;;;;;;6187783;23;20169;-87
2022/03/22 06:38:17;;;;;;;5.47;4.93;;;;;;;;;;6187758;23;20227;-87
2022/03/22 06:40:48;;;;;;;5.07;4.63;;;;;;;;;;6162158;23;20244;-88
2022/03/22 06:43:17;;;;;;;9.23;5.80;;;;;;;;;;6161759;23;20176;-87
2022/03/22 06:45:46;;;;;;;6.60;5.50;;;;;;;;;;6161932;23;20237;-88
2022/03/22 06:48:15;;;;;;;2.57;2.47;;;;;;;;;;6163607;23;20178;-87
2022/03/22 06:50:45;;;;;;;8.13;7.40;;;;;;;;;;6163060;23;20185;-87
2022/03/22 06:53:13;;;;;;;14.90;10.57;;;;;;;;;;6166489;23;20197;-87
2022/03/22 06:55:44;;;;;;;5.80;5.07;;;;;;;;;;6174421;23;20188;-87
2022/03/22 06:58:18;;;;;;;17.43;12.83;;;;;;;;;;6175152;23;20177;-89
2022/03/22 07:00:47;;;;;;;18.43;11.43;;;;;;;;;;6163009;23;20173;-89
2022/03/22 07:03:16;;;;;;;6.83;6.27;;;;;;;;;;6161104;23;20198;-89
2022/03/22 07:05:46;;;;;;;12.10;8.50;;;;;;;;;;6161921;23;20188;-89
2022/03/22 07:08:15;;;;;;;11.30;8.27;;;;;;;;;;6161798;23;20268;-88
2022/03/22 07:11:47;;;;;;;26.13;17.17;;;;;;;;;;6161132;23;20211;-89
2022/03/22 07:13:39;;;;;;;26.47;14.93;;;;;;;;;;6160634;23;20233;-89
2022/03/22 07:16:09;;;;;;;13.47;10.07;;;;;;;;;;6160970;23;20212;-89
2022/03/22 07:18:38;;;;;;;13.00;11.77;;;;;;;;;;6161108;23;20182;-90
2022/03/22 07:21:07;;;;;;;14.23;8.63;;;;;;;;;;6160731;23;20181;-89
2022/03/22 07:23:35;;;;;;;10.90;7.93;;;;;;;;;;6160762;23;20177;-88
2022/03/22 07:26:05;;;;;;;9.70;7.67;;;;;;;;;;6161189;23;20174;-89
2022/03/22 07:28:35;;;;;;;13.30;8.93;;;;;;;;;;6161279;23;20246;-89
2022/03/22 07:31:04;;;;;;;13.67;12.27;;;;;;;;;;6160997;23;20256;-89
2022/03/22 07:33:32;;;;;;;29.67;18.63;;;;;;;;;;6160903;23;20201;-89
2022/03/22 07:36:01;;;;;;;7.97;5.47;;;;;;;;;;6161660;23;20180;-89
2022/03/22 07:38:33;;;;;;;1.40;1.40;;;;;;;;;;6160267;23;20260;-89
2022/03/22 07:41:07;;;;;;;10.80;8.07;;;;;;;;;;6160919;23;20237;-89
2022/03/22 07:43:44;;;;;;;3.07;2.87;;;;;;;;;;6161257;23;20220;-88
2022/03/22 07:46:24;;;;;;;10.73;8.43;;;;;;;;;;6160674;23;20177;-88
2022/03/22 07:48:53;;;;;;;17.03;7.37;;;;;;;;;;6160794;23;20174;-88
2022/03/22 09:53:25;;;;;;;4.67;4.30;;;;;;;;;;6151338;23;20214;-81
2022/03/22 09:56:26;;;;;;;;;;;;;;;;;;;;;
2022/03/22 09:59:55;;;;;;;0.63;0.63;;;;;;;;;;6039019;23;20196;-84
2022/03/22 10:02:54;;;;;;;11.07;7.97;;;;;;;;;;6126084;23;20179;-82
2022/03/22 10:06:02;;;;;;;;;;;;;;;;;;;;;
2022/03/22 14:47:17;;;;;;;;;;;;;;;;;;;;;
2022/03/22 14:50:12;;;;;;;6.17;4.83;;;;;;;;;;6067492;23;20199;-89
2022/03/22 14:59:49;;;;;;;8.87;6.70;;;;;;;;;;6071237;23;20314;-90
2022/03/22 15:08:49;;;;;;;17.13;7.50;;;;;;;;;;6037570;23;20188;-85
2022/03/22 15:11:28;;;;;;;11.90;7.37;;;;;;;;;;6063927;23;20188;-85
2022/03/22 15:14:03;;;;;;;13.53;8.23;;;;;;;;;;6063698;23;20207;-85
2022/03/22 15:16:37;;;;;;;8.40;6.10;;;;;;;;;;6040904;23;20183;-85
2022/03/22 15:19:07;;;;;;;11.67;8.00;;;;;;;;;;6049193;23;20186;-85
2022/03/22 15:22:03;;;;;;;8.10;4.37;;;;;;;;;;6108206;23;20268;-84
2022/03/22 15:24:39;;;;;;;14.07;10.03;;;;;;;;;;6123843;23;20286;-85
2022/03/22 15:27:13;;;;;;;11.57;7.07;;;;;;;;;;6122626;23;20221;-83
2022/03/22 15:30:00;;;;;;;12.37;8.57;;;;;;;;;;6123735;23;20211;-83
2022/03/22 15:32:44;;;;;;;12.53;6.23;;;;;;;;;;6123229;23;20182;-84
2022/03/22 15:35:16;;;;;;;13.53;10.30;;;;;;;;;;6122616;23;20179;-85
2022/03/22 15:37:51;;;;;;;8.50;7.60;;;;;;;;;;6122120;23;20184;-85
2022/03/22 15:40:37;;;;;;;4.30;3.07;;;;;;;;;;6123033;23;20191;-86
2022/03/22 15:43:23;;;;;;;8.07;6.13;;;;;;;;;;6122846;23;20200;-86
2022/03/22 15:45:57;;;;;;;17.23;8.93;;;;;;;;;;6124339;23;20182;-85
2022/03/22 15:48:42;;;;;;;16.80;10.63;;;;;;;;;;6123131;23;20187;-85
2022/03/22 15:54:04;;;;;;;10.10;8.50;;;;;;;;;;6118295;23;20199;-84
2022/03/22 15:56:35;;;;;;;11.20;6.23;;;;;;;;;;6123256;23;20619;-87
2022/03/22 15:59:30;;;;;;;5.60;4.17;;;;;;;;;;6124134;23;20183;-86
2022/03/22 16:02:10;;;;;;;5.27;3.87;;;;;;;;;;6148019;23;20177;-85
2022/03/22 16:04:49;;;;;;;7.43;5.30;;;;;;;;;;6124043;23;20246;-87
2022/03/22 16:07:21;;;;;;;11.53;9.33;;;;;;;;;;6122653;23;20267;-86
2022/03/22 16:10:10;;;;;;;11.60;8.80;;;;;;;;;;6121603;23;20179;-89
2022/03/22 16:12:50;;;;;;;14.07;7.93;;;;;;;;;;6121107;23;20270;-87
2022/03/22 16:15:27;;;;;;;4.97;4.47;;;;;;;;;;6122857;23;20180;-89
2022/03/22 16:18:01;;;;;;;12.43;7.90;;;;;;;;;;6124644;23;20179;-89
2022/03/22 16:20:36;;;;;;;8.13;4.53;;;;;;;;;;6124433;23;20229;-88
2022/03/22 16:23:08;;;;;;;13.67;9.13;;;;;;;;;;6125210;23;20181;-89
2022/03/22 16:25:39;;;;;;;10.77;8.57;;;;;;;;;;6124775;23;20208;-89
2022/03/22 16:28:09;;;;;;;12.77;6.70;;;;;;;;;;6125162;23;20177;-88
2022/03/22 16:30:38;;;;;;;10.70;6.23;;;;;;;;;;6124804;23;20184;-88
2022/03/22 16:41:22;;;;;;;5.67;3.10;;;;;;;;;;6123641;23;20214;-88
2022/03/22 16:43:51;;;;;;;2.03;1.93;;;;;;;;;;6126519;23;20186;-88
2022/03/22 16:46:21;;;;;;;10.63;6.23;;;;;;;;;;6125263;23;20288;-88
2022/03/22 16:48:49;;;;;;;12.10;7.97;;;;;;;;;;6124870;23;20180;-88
2022/03/22 16:51:19;;;;;;;2.33;2.10;;;;;;;;;;6125197;23;20187;-89
2022/03/22 16:53:48;;;;;;;9.07;6.30;;;;;;;;;;6125301;23;20177;-88
2022/03/22 16:56:16;;;;;;;5.97;4.23;;;;;;;;;;6126717;23;20172;-88
2022/03/22 16:58:46;;;;;;;12.83;5.83;;;;;;;;;;6124983;23;20372;-88
2022/03/22 17:01:14;;;;;;;7.93;4.77;;;;;;;;;;6125701;23;20180;-87
2022/03/22 17:03:45;;;;;;;3.13;2.90;;;;;;;;;;6124873;23;20204;-89
2022/03/22 17:06:14;;;;;;;11.80;10.37;;;;;;;;;;6124964;23;20263;-89
2022/03/22 17:08:42;;;;;;;3.67;3.20;;;;;;;;;;6125326;23;20181;-88
2022/03/22 17:11:12;;;;;;;15.20;6.50;;;;;;;;;;6124679;23;20181;-85
2022/03/22 17:13:40;;;;;;;7.47;5.43;;;;;;;;;;6124919;23;20182;-88
2022/03/22 17:16:10;;;;;;;8.50;4.73;;;;;;;;;;6125396;23;20180;-88
2022/03/22 17:18:39;;;;;;;4.80;4.40;;;;;;;;;;6125687;23;20176;-87
2022/03/22 17:21:08;;;;;;;14.30;8.00;;;;;;;;;;6125175;23;20185;-87
2022/03/22 17:23:37;;;;;;;7.50;5.57;;;;;;;;;;6125467;23;20377;-89
2022/03/22 17:26:07;;;;;;;1.87;1.77;;;;;;;;;;6125000;23;20180;-89
2022/03/22 17:28:36;;;;;;;2.60;2.40;;;;;;;;;;6126479;23;20260;-88
2022/03/22 17:31:04;;;;;;;14.20;12.93;;;;;;;;;;6125108;23;20183;-89
2022/03/22 17:33:35;;;;;;;4.90;4.20;;;;;;;;;;6125201;23;20173;-89
2022/03/22 17:36:04;;;;;;;11.07;4.90;;;;;;;;;;6125064;23;20283;-88
2022/03/22 17:38:32;;;;;;;6.93;6.23;;;;;;;;;;6124441;23;20177;-89
2022/03/22 17:41:01;;;;;;;10.73;4.70;;;;;;;;;;6124898;23;20176;-88
2022/03/22 17:43:30;;;;;;;1.33;1.33;;;;;;;;;;6124469;23;20219;-87
2022/03/22 17:45:59;;;;;;;1.53;1.53;;;;;;;;;;6124886;23;20211;-89
2022/03/22 17:48:27;;;;;;;5.97;3.30;;;;;;;;;;6125178;23;20305;-89
2022/03/22 17:50:59;;;;;;;0.40;0.40;;;;;;;;;;6125032;23;20263;-88
2022/03/22 17:53:27;;;;;;;2.40;2.20;;;;;;;;;;6125174;23;20187;-88
2022/03/22 17:55:56;;;;;;;1.57;1.53;;;;;;;;;;6124753;23;20180;-88
2022/03/22 17:58:24;;;;;;;1.43;1.33;;;;;;;;;;6125152;23;20176;-88
2022/03/22 18:00:53;;;;;;;2.13;2.03;;;;;;;;;;6126274;23;20242;-86
2022/03/22 18:03:26;;;;;;;0.40;0.40;;;;;;;;;;6124480;23;20192;-88
2022/03/22 18:05:54;;;;;;;3.27;2.13;;;;;;;;;;6124345;23;20199;-88
2022/03/22 18:08:25;;;;;;;5.80;4.13;;;;;;;;;;6126181;23;20180;-88
2022/03/22 18:11:41;;;;;;;0.70;0.70;;;;;;;;;;6127010;23;20172;-89
2022/03/22 18:13:46;;;;;;;10.93;8.13;;;;;;;;;;6124815;23;20184;-87
2022/03/22 18:16:14;;;;;;;7.63;3.90;;;;;;;;;;6127217;23;20179;-88
2022/03/22 18:19:03;;;;;;;2.73;2.53;;;;;;;;;;6126749;23;20230;-88
2022/03/22 18:21:32;;;;;;;3.97;3.67;;;;;;;;;;6126510;23;20190;-88
2022/03/22 18:24:03;;;;;;;2.37;2.17;;;;;;;;;;6127198;23;20226;-88
2022/03/22 18:26:31;;;;;;;1.70;1.60;;;;;;;;;;6126562;23;20183;-87
2022/03/22 18:29:00;;;;;;;0.70;0.70;;;;;;;;;;6126585;23;20180;-88
2022/03/22 18:31:28;;;;;;;2.67;2.43;;;;;;;;;;6125972;23;20183;-87
2022/03/22 18:33:57;;;;;;;6.67;2.00;;;;;;;;;;6151499;23;20202;-88
2022/03/22 18:36:25;;;;;;;3.40;3.20;;;;;;;;;;6126389;23;20176;-88
2022/03/22 18:38:54;;;;;;;5.00;2.73;;;;;;;;;;6126625;23;20246;-88
2022/03/22 18:41:24;;;;;;;2.70;2.60;;;;;;;;;;6126123;23;20202;-86
2022/03/22 18:43:53;;;;;;;2.87;2.13;;;;;;;;;;6126857;23;20227;-88
2022/03/22 18:46:22;;;;;;;4.13;3.80;;;;;;;;;;6126703;23;20196;-87
2022/03/22 18:48:51;;;;;;;10.93;7.97;;;;;;;;;;6126563;23;20184;-87
2022/03/22 18:51:20;;;;;;;6.83;5.07;;;;;;;;;;6126885;23;20209;-88
2022/03/22 18:53:48;;;;;;;4.53;3.17;;;;;;;;;;6126699;23;20187;-88
2022/03/22 18:56:17;;;;;;;5.53;4.77;;;;;;;;;;6127656;23;20180;-88
2022/03/22 18:58:47;;;;;;;7.83;6.67;;;;;;;;;;6127707;23;20171;-88
2022/03/22 19:01:16;;;;;;;12.07;7.63;;;;;;;;;;6126366;23;20176;-87
2022/03/22 19:03:45;;;;;;;6.57;4.20;;;;;;;;;;6126280;23;20203;-88
2022/03/22 19:06:15;;;;;;;12.07;5.10;;;;;;;;;;6126292;23;20199;-89
2022/03/22 19:08:43;;;;;;;17.27;11.73;;;;;;;;;;6127843;23;20182;-88
2022/03/22 19:11:12;;;;;;;10.87;7.43;;;;;;;;;;6127758;23;20179;-89
2022/03/22 19:13:41;;;;;;;5.60;3.73;;;;;;;;;;6127508;23;20246;-88
2022/03/22 19:18:58;;;;;;;11.87;6.77;;;;;;;;;;6126116;23;20179;-87
2022/03/22 19:21:26;;;;;;;18.93;11.83;;;;;;;;;;6127938;23;20173;-87
2022/03/22 19:23:55;;;;;;;14.77;8.50;;;;;;;;;;6127484;23;20171;-88
2022/03/22 19:26:26;;;;;;;9.83;8.83;;;;;;;;;;6127336;23;20189;-88
2022/03/22 19:28:55;;;;;;;30.13;13.50;;;;;;;;;;6125890;23;20181;-88
2022/03/22 19:34:11;;;;;;;6.43;5.97;;;;;;;;;;6128074;23;20170;-88
2022/03/22 19:36:40;;;;;;;14.90;9.87;;;;;;;;;;6126016;23;20181;-88
2022/03/22 19:39:08;;;;;;;12.30;7.33;;;;;;;;;;6127498;23;20180;-88
2022/03/22 19:41:37;;;;;;;12.63;8.93;;;;;;;;;;6125677;23;20186;-87
2022/03/22 19:44:07;;;;;;;9.73;8.10;;;;;;;;;;6127030;23;20179;-88
2022/03/22 19:46:50;;;;;;;18.17;10.60;;;;;;;;;;6127456;23;20190;-88
2022/03/22 19:49:19;;;;;;;14.83;11.07;;;;;;;;;;6125818;23;20184;-86
2022/03/22 19:51:48;;;;;;;19.37;12.20;;;;;;;;;;6127416;23;20173;-88
2022/03/22 19:54:16;;;;;;;17.00;8.90;;;;;;;;;;6125953;23;20255;-87
2022/03/22 19:56:47;;;;;;;9.10;8.10;;;;;;;;;;6125671;23;20177;-88
2022/03/22 19:59:16;;;;;;;16.40;11.37;;;;;;;;;;6125802;23;20187;-87
2022/03/22 20:01:44;;;;;;;24.23;16.43;;;;;;;;;;6127259;23;20168;-88
2022/03/22 20:04:14;;;;;;;10.40;6.60;;;;;;;;;;6125859;23;20235;-88
2022/03/22 20:06:44;;;;;;;10.20;9.00;;;;;;;;;;6126148;23;20204;-87
2022/03/22 20:09:13;;;;;;;17.73;13.50;;;;;;;;;;6125536;23;20185;-88
2022/03/22 20:11:41;;;;;;;8.00;7.20;;;;;;;;;;6125726;23;20187;-88
2022/03/22 20:14:10;;;;;;;8.33;5.40;;;;;;;;;;6127260;23;20173;-87
2022/03/22 20:16:38;;;;;;;16.27;10.23;;;;;;;;;;6127104;23;20233;-88
2022/03/22 20:19:07;;;;;;;15.77;11.30;;;;;;;;;;6126974;23;20513;-88
2022/03/22 20:21:39;;;;;;;5.80;4.83;;;;;;;;;;6125605;23;20179;-88
2022/03/22 20:24:08;;;;;;;22.67;12.10;;;;;;;;;;6125624;23;20177;-88
2022/03/22 20:26:36;;;;;;;7.97;7.10;;;;;;;;;;6149940;23;20200;-85
2022/03/22 20:29:05;;;;;;;7.97;6.10;;;;;;;;;;6125439;23;20181;-87
2022/03/22 20:31:33;;;;;;;8.90;6.63;;;;;;;;;;6125559;23;20186;-88
2022/03/22 20:34:04;;;;;;;14.53;7.87;;;;;;;;;;6125399;23;20181;-89
2022/03/22 20:36:33;;;;;;;16.57;11.27;;;;;;;;;;6125998;23;20264;-88
2022/03/22 20:39:04;;;;;;;7.83;5.87;;;;;;;;;;6127250;23;20176;-88
2022/03/22 20:41:33;;;;;;;10.03;5.00;;;;;;;;;;6125807;23;20181;-86
2022/03/22 20:44:02;;;;;;;10.03;6.67;;;;;;;;;;6125382;23;20267;-88
2022/03/22 20:46:31;;;;;;;6.80;4.93;;;;;;;;;;6125290;23;20248;-90
2022/03/22 20:48:59;;;;;;;2.90;2.50;;;;;;;;;;6125160;23;20205;-88
2022/03/22 20:51:28;;;;;;;0.60;0.60;;;;;;;;;;6125783;23;20179;-87
2022/03/22 20:53:58;;;;;;;1.93;1.83;;;;;;;;;;6127270;23;20177;-88
2022/03/22 20:59:13;;;;;;;14.80;13.73;;;;;;;;;;6125896;23;20227;-88
2022/03/22 21:01:42;;;;;;;3.27;3.17;;;;;;;;;;6125933;23;20208;-88
2022/03/22 21:04:11;;;;;;;2.23;2.13;;;;;;;;;;6125137;23;20197;-87
2022/03/22 21:06:40;;;;;;;4.60;2.80;;;;;;;;;;6126341;23;20223;-87
2022/03/22 21:09:08;;;;;;;1.67;1.57;;;;;;;;;;6126398;23;20177;-88
2022/03/22 21:11:38;;;;;;;0.90;0.90;;;;;;;;;;6125374;23;20177;-88
2022/03/22 21:14:07;;;;;;;1.90;1.80;;;;;;;;;;6125670;23;20220;-86
2022/03/22 21:16:39;;;;;;;9.33;8.47;;;;;;;;;;6127146;23;20217;-88
2022/03/22 21:19:10;;;;;;;3.23;3.03;;;;;;;;;;6125497;23;20180;-87
2022/03/22 21:21:39;;;;;;;8.03;4.60;;;;;;;;;;6125995;23;20192;-86
2022/03/22 21:24:09;;;;;;;0.90;0.90;;;;;;;;;;6124882;23;20181;-89
2022/03/22 21:26:38;;;;;;;5.40;3.57;;;;;;;;;;6125275;23;20196;-88
2022/03/22 21:29:07;;;;;;;6.50;5.27;;;;;;;;;;6150028;23;20172;-88
2022/03/22 21:31:36;;;;;;;7.47;5.50;;;;;;;;;;6125477;23;20196;-87
2022/03/22 21:34:05;;;;;;;1.40;1.40;;;;;;;;;;6125255;23;20181;-88
2022/03/22 21:36:34;;;;;;;3.67;3.53;;;;;;;;;;6124839;23;20259;-87
2022/03/22 21:39:02;;;;;;;3.70;3.40;;;;;;;;;;6124952;23;20267;-88
2022/03/22 21:41:31;;;;;;;7.23;6.93;;;;;;;;;;6125134;23;20203;-88
2022/03/22 21:44:01;;;;;;;2.53;2.37;;;;;;;;;;6125168;23;20180;-88
2022/03/22 21:46:31;;;;;;;2.93;2.77;;;;;;;;;;6125305;23;20188;-87
2022/03/22 21:49:00;;;;;;;12.70;6.93;;;;;;;;;;6125290;23;20196;-86
2022/03/22 21:51:48;;;;;;;2.10;1.93;;;;;;;;;;6124901;23;20177;-88
2022/03/22 21:54:17;;;;;;;0.80;0.80;;;;;;;;;;6124989;23;20181;-88
2022/03/22 21:56:46;;;;;;;3.27;3.03;;;;;;;;;;6125012;23;20183;-88
2022/03/22 21:59:16;;;;;;;1.00;1.00;;;;;;;;;;6124861;23;20177;-88
2022/03/22 22:01:45;;;;;;;1.60;1.60;;;;;;;;;;6149005;23;20180;-88
2022/03/22 22:04:13;;;;;;;0.60;0.60;;;;;;;;;;6124725;23;20231;-88
2022/03/22 22:06:42;;;;;;;1.07;1.07;;;;;;;;;;6124351;23;20211;-87
2022/03/22 22:09:11;;;;;;;2.80;2.70;;;;;;;;;;6124411;23;20178;-88
2022/03/22 22:11:39;;;;;;;2.73;2.53;;;;;;;;;;6126195;23;20173;-88
2022/03/22 22:14:09;;;;;;;1.77;1.67;;;;;;;;;;6124592;23;20180;-87
2022/03/22 22:16:40;;;;;;;2.67;2.53;;;;;;;;;;6125184;23;20196;-87
2022/03/22 22:19:08;;;;;;;3.50;3.30;;;;;;;;;;6124858;23;20178;-89
2022/03/22 22:21:37;;;;;;;0.60;0.60;;;;;;;;;;6126587;23;20227;-88
2022/03/22 22:24:06;;;;;;;6.03;5.73;;;;;;;;;;6124586;23;20186;-88
2022/03/22 22:26:34;;;;;;;0.80;0.80;;;;;;;;;;6125013;23;20247;-88
2022/03/22 22:29:03;;;;;;;1.77;1.67;;;;;;;;;;6125693;23;20188;-86
2022/03/22 22:34:19;;;;;;;6.20;5.80;;;;;;;;;;6124695;23;20176;-88
2022/03/22 22:36:47;;;;;;;5.77;5.27;;;;;;;;;;6124687;23;20177;-88
2022/03/22 22:39:16;;;;;;;2.57;2.37;;;;;;;;;;6124376;23;20181;-87
2022/03/22 22:41:45;;;;;;;8.93;4.33;;;;;;;;;;6124678;23;20208;-88
2022/03/22 22:44:14;;;;;;;2.73;2.53;;;;;;;;;;6125975;23;20178;-87